Time;durP1;ratioP1;P1;durP2;ratioP2;P2;SDS_P1;SDS_P2;PMS_P1;PMS_P2;Temp;Humidity;BMP_temperature;BMP_pressure;BME280_temperature;BME280_humidity;BME280_pressure;Samples;Min_cycle;Max_cycle;Signal;HPM_P1;HPM_P2
2024/01/04 00:02:04;;;;;;;8.48;1.95;;;8.00;99.90;;;;;;5074830;28;20040;-90
2024/01/04 00:04:30;;;;;;;8.05;2.22;;;7.90;99.90;;;;;;5074587;28;20150;-91
2024/01/04 00:06:56;;;;;;;4.88;1.83;;;7.90;99.90;;;;;;5074767;28;20040;-91
2024/01/04 00:09:22;;;;;;;9.98;2.78;;;8.00;99.90;;;;;;5091624;28;20044;-91
2024/01/04 00:11:47;;;;;;;7.43;2.28;;;8.00;99.90;;;;;;5074626;28;20051;-92
2024/01/04 00:14:13;;;;;;;8.93;1.23;;;8.00;99.90;;;;;;5082000;28;20036;-92
2024/01/04 00:16:39;;;;;;;6.15;1.13;;;8.00;99.90;;;;;;5074153;28;20036;-92
2024/01/04 00:19:04;;;;;;;2.00;0.77;;;7.90;99.90;;;;;;5074066;28;20036;-91
2024/01/04 00:21:30;;;;;;;2.45;0.95;;;7.90;99.90;;;;;;5055196;28;20094;-91
2024/01/04 00:23:57;;;;;;;5.25;0.98;;;7.80;99.90;;;;;;5054513;28;20048;-91
2024/01/04 00:26:23;;;;;;;4.53;1.35;;;7.80;99.90;;;;;;5054674;28;20043;-91
2024/01/04 00:28:48;;;;;;;4.63;1.23;;;7.80;99.90;;;;;;5059378;28;20039;-91
2024/01/04 00:31:14;;;;;;;3.70;1.20;;;7.80;99.90;;;;;;5091232;28;20444;-91
2024/01/04 00:33:40;;;;;;;9.18;1.95;;;7.80;99.90;;;;;;5090762;28;20036;-92
2024/01/04 00:36:06;;;;;;;7.32;1.20;;;7.80;99.90;;;;;;5066619;28;20090;-90
2024/01/04 00:38:31;;;;;;;5.45;1.38;;;7.80;99.90;;;;;;5059057;28;20040;-91
2024/01/04 00:40:57;;;;;;;1.45;0.70;;;7.80;99.90;;;;;;5091417;28;20116;-91
2024/01/04 00:43:23;;;;;;;1.90;0.75;;;7.80;99.90;;;;;;5063492;28;20495;-91
2024/01/04 00:45:48;;;;;;;2.42;0.85;;;7.70;99.90;;;;;;5084562;28;20036;-90
2024/01/04 00:48:14;;;;;;;1.60;0.70;;;7.60;99.90;;;;;;5073992;28;20039;-90
2024/01/04 00:50:40;;;;;;;1.70;1.08;;;7.60;99.90;;;;;;5073984;28;20055;-92
2024/01/04 00:53:05;;;;;;;2.22;0.70;;;7.60;99.90;;;;;;5090703;28;20044;-91
2024/01/04 00:55:31;;;;;;;3.40;0.88;;;7.50;99.90;;;;;;5091092;28;20039;-91
2024/01/04 00:57:57;;;;;;;2.22;0.75;;;7.60;99.90;;;;;;5067646;28;20123;-90
2024/01/04 01:00:22;;;;;;;3.35;0.98;;;7.60;99.90;;;;;;5082190;28;20636;-91
2024/01/04 01:02:48;;;;;;;2.10;0.80;;;7.50;99.90;;;;;;5090630;28;20044;-90
2024/01/04 01:05:14;;;;;;;2.10;0.47;;;7.50;99.90;;;;;;5073768;28;20040;-91
2024/01/04 01:07:39;;;;;;;3.78;1.00;;;7.50;99.90;;;;;;5073987;28;20548;-90
2024/01/04 01:10:05;;;;;;;2.95;0.80;;;7.50;99.90;;;;;;5073619;28;20584;-90
2024/01/04 01:12:31;;;;;;;0.90;0.60;;;7.40;99.90;;;;;;5091673;28;20048;-90
2024/01/04 01:14:56;;;;;;;3.13;0.95;;;7.40;99.90;;;;;;5072682;28;20039;-91
2024/01/04 01:17:22;;;;;;;1.77;0.60;;;7.40;99.90;;;;;;5074798;28;20035;-90
2024/01/04 01:19:47;;;;;;;2.03;0.85;;;7.30;99.90;;;;;;5085114;28;20136;-89
2024/01/04 01:22:13;;;;;;;3.92;0.75;;;7.30;99.90;;;;;;5082464;28;20399;-90
2024/01/04 01:24:40;;;;;;;2.80;0.80;;;7.30;99.90;;;;;;5083277;28;20040;-91
2024/01/04 01:27:06;;;;;;;1.65;0.60;;;7.30;99.90;;;;;;5082624;28;20040;-91
2024/01/04 01:29:32;;;;;;;3.15;0.80;;;7.30;99.90;;;;;;5062916;28;20041;-90
2024/01/04 01:31:57;;;;;;;7.80;1.00;;;7.20;99.90;;;;;;5053043;28;20049;-90
2024/01/04 01:34:23;;;;;;;4.32;1.23;;;7.20;99.90;;;;;;5061230;28;20032;-90
2024/01/04 01:36:48;;;;;;;1.80;0.82;;;7.20;99.90;;;;;;5065867;28;20392;-90
2024/01/04 01:39:14;;;;;;;2.40;0.82;;;7.20;99.90;;;;;;5072702;28;20032;-91
2024/01/04 01:41:40;;;;;;;1.75;0.70;;;7.20;99.90;;;;;;5072109;28;20094;-90
2024/01/04 01:44:06;;;;;;;2.92;0.73;;;7.30;99.90;;;;;;5071795;28;20038;-91
2024/01/04 01:46:31;;;;;;;2.47;0.95;;;7.30;99.90;;;;;;5090211;28;20461;-91
2024/01/04 01:48:57;;;;;;;4.75;0.63;;;7.30;99.90;;;;;;5089279;28;20036;-91
2024/01/04 01:51:23;;;;;;;3.22;1.10;;;7.30;99.90;;;;;;5054851;28;20485;-90
2024/01/04 01:53:48;;;;;;;2.45;0.88;;;7.30;99.90;;;;;;5070772;28;20551;-91
2024/01/04 01:56:14;;;;;;;2.67;1.10;;;7.30;99.90;;;;;;5088302;28;20081;-90
2024/01/04 01:58:40;;;;;;;4.13;1.25;;;7.30;99.90;;;;;;5076497;28;20384;-91
2024/01/04 02:01:06;;;;;;;3.13;0.93;;;7.30;99.90;;;;;;5068545;28;20389;-90
2024/01/04 02:03:32;;;;;;;3.20;0.98;;;7.20;99.90;;;;;;5088400;28;20096;-91
2024/01/04 02:05:57;;;;;;;4.82;0.93;;;7.30;99.90;;;;;;5072747;28;20427;-90
2024/01/04 02:08:23;;;;;;;2.38;0.82;;;7.30;99.90;;;;;;5073265;28;20047;-91
2024/01/04 02:10:49;;;;;;;2.95;0.85;;;7.30;99.90;;;;;;5072510;28;20414;-90
2024/01/04 02:13:14;;;;;;;2.35;0.77;;;7.20;99.90;;;;;;5071877;28;20442;-90
2024/01/04 02:15:40;;;;;;;2.60;0.95;;;7.20;99.90;;;;;;5074459;28;20117;-91
2024/01/04 02:18:07;;;;;;;1.75;0.50;;;7.20;99.90;;;;;;5089447;28;20061;-90
2024/01/04 02:20:33;;;;;;;5.40;1.15;;;7.20;99.90;;;;;;5078257;28;20380;-90
2024/01/04 02:22:58;;;;;;;1.20;0.60;;;7.20;99.90;;;;;;5069420;28;20045;-90
2024/01/04 02:25:24;;;;;;;2.17;0.82;;;7.10;99.90;;;;;;5069681;28;20036;-90
2024/01/04 02:27:50;;;;;;;2.70;0.57;;;7.10;99.90;;;;;;5069660;28;20040;-90
2024/01/04 02:30:15;;;;;;;3.20;1.08;;;7.10;99.90;;;;;;5086772;28;20040;-90
2024/01/04 02:32:41;;;;;;;3.03;0.82;;;7.10;99.90;;;;;;5072572;28;20044;-89
2024/01/04 02:35:07;;;;;;;5.57;0.80;;;7.00;99.90;;;;;;5072515;28;20122;-91
2024/01/04 02:37:33;;;;;;;2.45;0.68;;;6.90;99.90;;;;;;5071983;28;20085;-90
2024/01/04 02:39:58;;;;;;;5.03;1.23;;;7.00;99.90;;;;;;5092123;28;20079;-90
2024/01/04 02:42:24;;;;;;;2.15;0.60;;;6.90;99.90;;;;;;5093502;28;20066;-91
2024/01/04 02:44:50;;;;;;;3.63;0.77;;;6.90;99.90;;;;;;5092828;28;20478;-90
2024/01/04 02:47:15;;;;;;;1.58;0.60;;;6.90;99.90;;;;;;5076307;28;20388;-91
2024/01/04 02:49:41;;;;;;;1.27;0.65;;;6.80;99.90;;;;;;5061313;28;20121;-91
2024/01/04 02:52:07;;;;;;;3.33;0.75;;;6.80;99.90;;;;;;5076251;28;20100;-90
2024/01/04 02:54:32;;;;;;;5.75;0.90;;;6.90;99.90;;;;;;5091790;28;20586;-90
2024/01/04 02:56:58;;;;;;;3.17;0.70;;;6.80;99.90;;;;;;5076070;28;20189;-91
2024/01/04 02:59:24;;;;;;;4.78;0.88;;;6.80;99.90;;;;;;5092876;28;20043;-91
2024/01/04 03:01:49;;;;;;;4.88;0.95;;;6.90;99.90;;;;;;5093068;28;20040;-90
2024/01/04 03:04:15;;;;;;;7.40;1.20;;;6.90;99.90;;;;;;5076140;28;20388;-90
2024/01/04 03:06:41;;;;;;;1.83;0.70;;;6.80;99.90;;;;;;5076380;28;20073;-90
2024/01/04 03:09:07;;;;;;;6.07;1.20;;;6.90;99.90;;;;;;5076063;28;20113;-90
2024/01/04 03:11:33;;;;;;;2.47;0.70;;;6.90;99.90;;;;;;5075839;28;20044;-90
2024/01/04 03:13:59;;;;;;;3.33;0.68;;;6.90;99.90;;;;;;5075773;28;20087;-90
2024/01/04 03:16:24;;;;;;;1.05;0.52;;;6.90;99.90;;;;;;5075574;28;20079;-90
2024/01/04 03:18:50;;;;;;;2.70;0.80;;;6.90;99.90;;;;;;5092920;28;20121;-88
2024/01/04 03:21:16;;;;;;;4.00;0.82;;;6.80;99.90;;;;;;5092209;28;20510;-90
2024/01/04 03:23:42;;;;;;;2.55;0.70;;;6.80;99.90;;;;;;5091484;28;20047;-90
2024/01/04 03:26:08;;;;;;;5.20;1.08;;;6.80;99.90;;;;;;5075614;28;20036;-91
2024/01/04 03:28:34;;;;;;;4.65;1.10;;;6.80;99.90;;;;;;5092277;28;20048;-90
2024/01/04 03:30:59;;;;;;;5.28;1.23;;;6.80;99.90;;;;;;5092350;28;20046;-91
2024/01/04 03:33:25;;;;;;;2.85;0.88;;;6.80;99.90;;;;;;5092084;28;20044;-91
2024/01/04 03:35:51;;;;;;;1.98;0.60;;;6.80;99.90;;;;;;5092249;28;20048;-90
2024/01/04 03:38:17;;;;;;;3.40;0.77;;;6.80;99.90;;;;;;5066771;28;20042;-91
2024/01/04 03:40:42;;;;;;;2.85;1.10;;;6.80;99.90;;;;;;5075804;28;20094;-90
2024/01/04 03:43:08;;;;;;;2.05;0.70;;;6.80;99.90;;;;;;5091911;28;20051;-90
2024/01/04 03:45:34;;;;;;;8.77;0.90;;;6.70;99.90;;;;;;5091693;28;20047;-90
2024/01/04 03:48:00;;;;;;;4.75;0.82;;;6.70;99.90;;;;;;5092018;28;20036;-90
2024/01/04 03:50:26;;;;;;;3.83;1.08;;;6.70;99.90;;;;;;5074495;28;20131;-90
2024/01/04 03:52:52;;;;;;;3.22;0.95;;;6.70;99.90;;;;;;5091081;28;20119;-91
2024/01/04 03:55:18;;;;;;;1.38;0.65;;;6.70;99.90;;;;;;5092918;28;20032;-90
2024/01/04 03:57:44;;;;;;;3.45;0.95;;;6.60;99.90;;;;;;5075074;28;20194;-90
2024/01/04 04:00:10;;;;;;;5.03;0.80;;;6.60;99.90;;;;;;5092303;28;20427;-90
2024/01/04 04:02:36;;;;;;;5.03;0.75;;;6.60;99.90;;;;;;5091693;28;20040;-90
2024/01/04 04:05:02;;;;;;;5.55;1.23;;;6.50;99.90;;;;;;5074425;28;20391;-90
2024/01/04 04:07:28;;;;;;;5.30;1.15;;;6.50;99.90;;;;;;5081884;28;20144;-90
2024/01/04 04:09:54;;;;;;;4.93;1.15;;;6.40;99.90;;;;;;5069189;28;20061;-90
2024/01/04 04:12:20;;;;;;;4.88;0.90;;;6.40;99.90;;;;;;5091698;28;20093;-90
2024/01/04 04:14:46;;;;;;;2.00;0.47;;;6.30;99.90;;;;;;5091151;28;20048;-90
2024/01/04 04:17:12;;;;;;;4.80;0.88;;;6.30;99.90;;;;;;5091420;28;20043;-90
2024/01/04 04:19:38;;;;;;;1.33;0.45;;;6.30;99.90;;;;;;5070526;28;20492;-90
2024/01/04 04:22:03;;;;;;;1.38;0.82;;;6.20;99.90;;;;;;5053711;28;20119;-90
2024/01/04 04:24:30;;;;;;;3.28;0.63;;;6.20;99.90;;;;;;5054814;28;20037;-91
2024/01/04 04:26:55;;;;;;;1.23;0.30;;;6.20;99.90;;;;;;5053960;28;20048;-91
2024/01/04 04:29:21;;;;;;;3.40;0.50;;;6.20;99.90;;;;;;5080638;28;20077;-90
2024/01/04 04:31:50;;;;;;;0.57;0.32;;;6.20;99.90;;;;;;5074410;28;20032;-91
2024/01/04 04:34:15;;;;;;;2.30;0.70;;;6.20;99.90;;;;;;5074133;28;20094;-91
2024/01/04 04:36:41;;;;;;;2.65;0.80;;;6.20;99.90;;;;;;5073876;28;20036;-91
2024/01/04 04:39:08;;;;;;;3.30;0.80;;;6.20;99.90;;;;;;5090928;28;20036;-91
2024/01/04 04:41:34;;;;;;;3.03;0.63;;;6.20;99.90;;;;;;5074069;28;20499;-91
2024/01/04 04:44:00;;;;;;;2.03;0.68;;;6.30;99.90;;;;;;5073740;28;20036;-90
2024/01/04 04:46:26;;;;;;;4.00;0.60;;;6.30;99.90;;;;;;5074280;28;20089;-91
2024/01/04 04:48:55;;;;;;;5.78;0.90;;;6.30;99.90;;;;;;5074166;28;20437;-91
2024/01/04 04:51:22;;;;;;;1.63;0.43;;;6.30;99.90;;;;;;5073112;28;20057;-90
2024/01/04 04:53:48;;;;;;;3.00;0.93;;;6.40;99.90;;;;;;5073451;28;20036;-91
2024/01/04 04:56:13;;;;;;;2.35;0.60;;;6.40;99.90;;;;;;5090886;28;20039;-91
2024/01/04 04:58:39;;;;;;;3.65;0.77;;;6.40;99.90;;;;;;5090771;28;20040;-90
2024/01/04 05:01:05;;;;;;;0.22;0.10;;;6.40;99.90;;;;;;5090272;28;20032;-91
2024/01/04 05:03:31;;;;;;;1.55;0.65;;;6.40;99.90;;;;;;5073708;28;20048;-90
2024/01/04 05:05:56;;;;;;;1.88;0.73;;;6.40;99.90;;;;;;5073467;28;20040;-91
2024/01/04 05:08:23;;;;;;;4.07;0.63;;;6.40;99.90;;;;;;5073709;28;20093;-90
2024/01/04 05:10:48;;;;;;;1.58;0.85;;;6.40;99.90;;;;;;5085060;28;20062;-90
2024/01/04 05:13:14;;;;;;;3.00;0.52;;;6.40;99.90;;;;;;5070016;28;20118;-91
2024/01/04 05:15:39;;;;;;;2.65;0.52;;;6.40;99.90;;;;;;5057669;28;20062;-91
2024/01/04 05:18:08;;;;;;;1.13;0.60;;;6.40;99.90;;;;;;5073884;28;20395;-90
2024/01/04 05:20:34;;;;;;;0.80;0.40;;;6.40;99.90;;;;;;5073489;28;20044;-90
2024/01/04 05:22:59;;;;;;;0.52;0.30;;;6.40;99.90;;;;;;5073051;28;20471;-90
2024/01/04 05:25:25;;;;;;;2.08;0.40;;;6.40;99.90;;;;;;5063805;28;20036;-91
2024/01/04 05:27:51;;;;;;;4.55;0.68;;;6.40;99.90;;;;;;5091714;28;20074;-90
2024/01/04 05:30:17;;;;;;;14.07;1.52;;;6.40;99.90;;;;;;5091436;28;20111;-91
2024/01/04 05:32:43;;;;;;;4.20;0.70;;;6.40;99.90;;;;;;5072907;28;20128;-90
2024/01/04 05:35:09;;;;;;;2.72;0.40;;;6.40;99.90;;;;;;5064979;28;20044;-90
2024/01/04 05:37:35;;;;;;;1.65;0.20;;;6.40;99.90;;;;;;5082241;28;20103;-90
2024/01/04 05:40:03;;;;;;;0.40;0.28;;;6.40;99.90;;;;;;5090819;28;20070;-90
2024/01/04 05:42:29;;;;;;;1.35;0.38;;;6.40;99.90;;;;;;5090210;28;20051;-90
2024/01/04 05:44:54;;;;;;;8.80;0.80;;;6.40;99.90;;;;;;5090113;28;20506;-91
2024/01/04 05:47:20;;;;;;;2.13;0.50;;;6.40;99.90;;;;;;5089290;28;20407;-90
2024/01/04 05:49:45;;;;;;;1.10;0.45;;;6.40;99.90;;;;;;5073070;28;20047;-90
2024/01/04 05:52:12;;;;;;;1.23;0.30;;;6.30;99.90;;;;;;5089969;28;20161;-90
2024/01/04 05:54:38;;;;;;;0.30;0.20;;;6.30;99.90;;;;;;5072529;28;20032;-91
2024/01/04 05:57:04;;;;;;;2.80;0.60;;;6.40;99.90;;;;;;5073184;28;20575;-90
2024/01/04 05:59:30;;;;;;;3.10;0.28;;;6.40;99.90;;;;;;5067032;28;20032;-90
2024/01/04 06:01:56;;;;;;;0.20;0.20;;;6.30;99.90;;;;;;5089554;28;20093;-91
2024/01/04 06:04:21;;;;;;;3.63;0.40;;;6.30;99.90;;;;;;5072058;28;20047;-90
2024/01/04 06:06:47;;;;;;;4.75;0.77;;;6.40;99.90;;;;;;5072852;28;20067;-90
2024/01/04 06:09:13;;;;;;;2.95;0.82;;;6.30;99.90;;;;;;5073002;28;20351;-91
2024/01/04 06:11:39;;;;;;;2.03;0.50;;;6.30;99.90;;;;;;5089801;28;20087;-90
2024/01/04 06:14:05;;;;;;;1.67;0.50;;;6.30;99.90;;;;;;5076251;28;20559;-91
2024/01/04 06:16:32;;;;;;;4.40;0.88;;;6.30;99.90;;;;;;5093527;28;20047;-90
2024/01/04 06:19:00;;;;;;;3.17;0.60;;;6.30;99.90;;;;;;5076516;28;20044;-90
2024/01/04 06:21:26;;;;;;;0.93;0.20;;;6.30;99.90;;;;;;5076473;28;20126;-91
2024/01/04 06:23:51;;;;;;;4.22;1.25;;;6.30;99.90;;;;;;5076471;28;20126;-90
2024/01/04 06:26:21;;;;;;;3.33;0.68;;;6.30;99.90;;;;;;5076545;28;20043;-91
2024/01/04 06:28:47;;;;;;;4.85;0.70;;;6.30;99.90;;;;;;5093503;28;20040;-91
2024/01/04 06:31:13;;;;;;;0.82;0.57;;;6.30;99.90;;;;;;5092822;28;20055;-90
2024/01/04 06:33:39;;;;;;;3.90;0.57;;;6.20;99.90;;;;;;5075938;28;20061;-90
2024/01/04 06:36:07;;;;;;;1.35;0.40;;;6.20;99.90;;;;;;5093438;28;20055;-89
2024/01/04 06:38:35;;;;;;;2.22;0.60;;;6.30;99.90;;;;;;5062123;28;20407;-91
2024/01/04 06:41:03;;;;;;;4.35;0.57;;;6.30;99.90;;;;;;5070340;28;20102;-91
2024/01/04 06:43:32;;;;;;;2.10;0.40;;;6.30;99.90;;;;;;5067103;28;20032;-90
2024/01/04 06:45:57;;;;;;;3.40;0.47;;;6.20;99.90;;;;;;5083105;28;20037;-90
2024/01/04 06:48:24;;;;;;;1.15;0.32;;;6.20;99.90;;;;;;5081920;28;20093;-91
2024/01/04 06:50:49;;;;;;;2.13;0.73;;;6.20;99.90;;;;;;5056220;28;20047;-91
2024/01/04 06:53:15;;;;;;;1.95;0.60;;;6.20;99.90;;;;;;5056270;28;20040;-91
2024/01/04 06:55:42;;;;;;;0.93;0.30;;;6.20;99.90;;;;;;5068785;28;20044;-91
2024/01/04 06:58:09;;;;;;;1.98;0.60;;;6.20;99.90;;;;;;5076102;28;20036;-90
2024/01/04 07:00:35;;;;;;;3.33;0.75;;;6.20;99.90;;;;;;5075620;28;20047;-90
2024/01/04 07:03:01;;;;;;;1.23;0.32;;;6.20;99.90;;;;;;5060311;28;20047;-91
2024/01/04 07:05:27;;;;;;;2.28;0.50;;;6.20;99.90;;;;;;5080254;28;20040;-90
2024/01/04 07:07:52;;;;;;;1.10;0.50;;;6.20;99.90;;;;;;5086870;28;20043;-89
2024/01/04 07:10:18;;;;;;;2.88;0.60;;;6.10;99.90;;;;;;5075773;28;20040;-90
2024/01/04 07:12:43;;;;;;;1.17;0.52;;;6.10;99.90;;;;;;5092943;28;20036;-89
2024/01/04 07:15:10;;;;;;;1.67;0.70;;;6.10;99.90;;;;;;5075490;28;20039;-89
2024/01/04 07:17:36;;;;;;;2.65;0.52;;;6.10;99.90;;;;;;5076092;28;20494;-90
2024/01/04 07:20:03;;;;;;;3.00;0.40;;;6.10;99.90;;;;;;5092543;28;20157;-91
2024/01/04 07:22:29;;;;;;;2.83;0.60;;;6.10;99.90;;;;;;5064860;28;20048;-89
2024/01/04 07:24:56;;;;;;;2.33;0.50;;;6.10;99.90;;;;;;5069253;28;20406;-90
2024/01/04 07:27:22;;;;;;;3.83;0.95;;;6.10;99.90;;;;;;5075465;28;20036;-91
2024/01/04 07:29:47;;;;;;;5.07;0.63;;;6.10;99.90;;;;;;5075417;28;20048;-91
2024/01/04 07:32:18;;;;;;;4.43;0.88;;;6.10;99.90;;;;;;5092314;28;20109;-89
2024/01/04 07:34:44;;;;;;;3.30;0.93;;;6.10;99.90;;;;;;5091501;28;20542;-90
2024/01/04 07:37:10;;;;;;;3.08;0.70;;;6.10;99.90;;;;;;5091765;28;20097;-90
2024/01/04 07:39:36;;;;;;;1.52;0.50;;;6.10;99.90;;;;;;5092202;28;20487;-89
2024/01/04 07:42:02;;;;;;;3.00;0.30;;;6.00;99.90;;;;;;5091797;28;20157;-88
2024/01/04 07:44:27;;;;;;;3.15;0.35;;;6.00;99.90;;;;;;5091860;28;20047;-89
2024/01/04 07:46:53;;;;;;;2.45;0.70;;;6.00;99.90;;;;;;5075748;28;20028;-89
2024/01/04 07:49:19;;;;;;;2.92;0.50;;;6.00;99.90;;;;;;5091921;28;20490;-90
2024/01/04 07:51:44;;;;;;;0.60;0.30;;;6.00;99.90;;;;;;5091953;28;20044;-90
2024/01/04 07:54:10;;;;;;;4.35;0.73;;;6.00;99.90;;;;;;5092814;28;20032;-89
2024/01/04 07:56:35;;;;;;;1.55;0.52;;;6.00;99.90;;;;;;5074736;28;20036;-89
2024/01/04 07:59:02;;;;;;;2.83;0.47;;;6.00;99.90;;;;;;5091723;28;20032;-89
2024/01/04 08:01:28;;;;;;;4.18;0.55;;;6.00;99.90;;;;;;5075285;28;20134;-90
2024/01/04 08:03:53;;;;;;;5.95;0.60;;;6.00;99.90;;;;;;5069014;28;20189;-90
2024/01/04 08:06:19;;;;;;;2.25;0.70;;;6.00;99.90;;;;;;5072578;28;20079;-90
2024/01/04 08:08:45;;;;;;;3.22;0.28;;;6.00;99.90;;;;;;5083080;28;20051;-90
2024/01/04 08:11:10;;;;;;;1.55;0.40;;;6.00;99.90;;;;;;5092130;28;20546;-90
2024/01/04 08:13:36;;;;;;;1.85;0.57;;;6.00;99.90;;;;;;5070315;28;20044;-90
2024/01/04 08:16:02;;;;;;;1.45;0.60;;;6.00;99.90;;;;;;5055758;28;20037;-89
2024/01/04 08:18:28;;;;;;;13.40;0.75;;;6.00;99.90;;;;;;5081915;28;20123;-91
2024/01/04 08:20:54;;;;;;;3.70;0.93;;;5.90;99.90;;;;;;5052373;28;20039;-90
2024/01/04 08:23:19;;;;;;;7.85;1.50;;;6.00;99.90;;;;;;5074596;28;20065;-91
2024/01/04 08:25:45;;;;;;;3.28;0.60;;;5.90;99.90;;;;;;5074892;28;20090;-90
2024/01/04 08:28:12;;;;;;;6.18;0.80;;;5.90;99.90;;;;;;5074537;28;20152;-89
2024/01/04 08:30:37;;;;;;;3.10;0.40;;;5.90;99.90;;;;;;5073949;28;20076;-90
2024/01/04 08:33:03;;;;;;;4.13;0.77;;;5.90;99.90;;;;;;5075217;28;20122;-90
2024/01/04 08:35:29;;;;;;;2.92;0.63;;;5.90;99.90;;;;;;5088548;28;20491;-90
2024/01/04 08:37:55;;;;;;;2.72;0.90;;;5.90;99.90;;;;;;5075793;28;20078;-90
2024/01/04 08:40:21;;;;;;;3.17;0.63;;;6.00;99.90;;;;;;5090861;28;20071;-90
2024/01/04 08:42:46;;;;;;;1.65;0.43;;;5.90;99.90;;;;;;5074096;28;20055;-90
2024/01/04 08:45:12;;;;;;;2.97;0.45;;;5.90;99.90;;;;;;5056967;28;20043;-90
2024/01/04 08:47:38;;;;;;;2.78;0.75;;;6.00;99.90;;;;;;5074168;28;20455;-90
2024/01/04 08:50:04;;;;;;;1.80;0.63;;;6.00;99.90;;;;;;5074088;28;20546;-91
2024/01/04 08:52:30;;;;;;;1.85;0.57;;;6.00;99.90;;;;;;5090833;28;20028;-90
2024/01/04 08:54:56;;;;;;;1.75;0.88;;;6.00;99.90;;;;;;5067659;28;20119;-91
2024/01/04 08:57:22;;;;;;;3.10;0.52;;;6.00;99.90;;;;;;5056941;28;20039;-91
2024/01/04 08:59:48;;;;;;;4.00;0.80;;;6.00;99.90;;;;;;5074107;28;20047;-91
2024/01/04 09:02:14;;;;;;;1.25;0.40;;;6.10;99.90;;;;;;5073734;28;20036;-91
2024/01/04 09:04:40;;;;;;;2.75;0.50;;;6.10;99.90;;;;;;5073282;28;20032;-91
2024/01/04 09:07:08;;;;;;;2.25;0.60;;;6.10;99.90;;;;;;5073785;28;20120;-89
2024/01/04 09:09:34;;;;;;;3.28;0.60;;;6.10;99.90;;;;;;5070030;28;20040;-90
2024/01/04 09:12:00;;;;;;;0.82;0.60;;;6.10;99.90;;;;;;5077415;28;20043;-90
2024/01/04 09:14:25;;;;;;;6.97;1.83;;;6.20;99.90;;;;;;5056781;28;20036;-91
2024/01/04 09:16:51;;;;;;;5.28;1.83;;;6.10;99.90;;;;;;5073393;28;20123;-91
2024/01/04 09:19:19;;;;;;;5.30;1.20;;;6.20;99.90;;;;;;5053899;28;20470;-90
2024/01/04 09:21:47;;;;;;;6.15;1.50;;;6.20;99.90;;;;;;5069514;28;20033;-90
2024/01/04 09:24:14;;;;;;;4.28;1.50;;;6.20;99.90;;;;;;5071678;28;20123;-89
2024/01/04 09:26:43;;;;;;;4.10;1.17;;;6.30;99.90;;;;;;5072872;28;20094;-89
2024/01/04 09:29:10;;;;;;;1.17;0.63;;;6.30;99.90;;;;;;5072118;28;20123;-91
2024/01/04 09:31:36;;;;;;;1.85;0.60;;;6.30;99.90;;;;;;5070662;28;20036;-90
2024/01/04 09:34:03;;;;;;;4.22;0.80;;;6.30;99.90;;;;;;5060230;28;20040;-89
2024/01/04 09:36:28;;;;;;;4.30;0.90;;;6.30;99.90;;;;;;5073219;28;20036;-89
2024/01/04 09:38:55;;;;;;;2.55;0.80;;;6.40;99.90;;;;;;5067260;28;20119;-89
2024/01/04 09:41:32;;;;;;;4.38;1.27;;;6.40;99.90;;;;;;5079596;28;20044;-89
2024/01/04 09:44:03;;;;;;;3.30;0.52;;;6.40;99.90;;;;;;5064771;28;20039;-90
2024/01/04 09:46:36;;;;;;;2.53;0.43;;;6.40;99.90;;;;;;5071006;28;20051;-90
2024/01/04 09:49:03;;;;;;;1.55;0.40;;;6.40;99.90;;;;;;5076672;28;20032;-91
2024/01/04 09:51:34;;;;;;;1.65;0.75;;;6.40;99.90;;;;;;5056428;28;20036;-91
2024/01/04 09:54:01;;;;;;;2.53;0.40;;;6.40;99.90;;;;;;5091155;28;20448;-90
2024/01/04 09:56:28;;;;;;;3.30;0.60;;;6.50;99.90;;;;;;5070885;28;20036;-91
2024/01/04 09:58:54;;;;;;;4.05;0.70;;;6.50;99.90;;;;;;5058939;28;20043;-90
2024/01/04 10:01:24;;;;;;;7.40;1.48;;;6.50;99.90;;;;;;5072897;28;20036;-89
2024/01/04 10:03:52;;;;;;;9.27;2.35;;;6.50;99.90;;;;;;5085456;28;20044;-90
2024/01/04 10:06:34;;;;;;;6.78;1.90;;;6.50;99.90;;;;;;5079207;28;20032;-89
2024/01/04 10:09:04;;;;;;;2.97;1.23;;;6.60;99.90;;;;;;5073334;28;20522;-90
2024/01/04 10:11:38;;;;;;;4.95;1.30;;;6.60;99.90;;;;;;5072981;28;20044;-91
2024/01/04 10:14:05;;;;;;;6.90;1.75;;;6.50;99.90;;;;;;5089490;28;20044;-90
2024/01/04 10:16:32;;;;;;;5.25;1.75;;;6.60;99.90;;;;;;5089771;28;20070;-91
2024/01/04 10:19:00;;;;;;;4.38;1.33;;;6.60;99.90;;;;;;5066607;28;20040;-90
2024/01/04 10:21:35;;;;;;;4.82;1.08;;;6.60;99.90;;;;;;5053124;28;20044;-91
2024/01/04 10:24:01;;;;;;;3.42;0.85;;;6.60;99.90;;;;;;5052561;28;20040;-91
2024/01/04 10:26:29;;;;;;;7.78;0.75;;;6.60;99.90;;;;;;5054847;28;20040;-90
2024/01/04 10:28:56;;;;;;;4.25;0.60;;;6.70;99.90;;;;;;5072597;28;20032;-91
2024/01/04 10:31:22;;;;;;;5.03;0.70;;;6.70;99.90;;;;;;5089510;28;20044;-90
2024/01/04 10:33:55;;;;;;;1.33;0.30;;;6.70;99.90;;;;;;5089251;28;20043;-90
2024/01/04 10:36:22;;;;;;;3.58;0.40;;;6.70;99.90;;;;;;5090865;28;20028;-90
2024/01/04 10:38:48;;;;;;;2.90;0.85;;;6.70;99.90;;;;;;5089436;28;20044;-90
2024/01/04 10:41:17;;;;;;;3.83;0.90;;;6.70;99.90;;;;;;5067813;28;20036;-90
2024/01/04 10:43:43;;;;;;;3.30;1.00;;;6.70;99.90;;;;;;5072575;28;20051;-90
2024/01/04 10:46:10;;;;;;;2.90;1.00;;;6.70;99.90;;;;;;5073070;28;20581;-91
2024/01/04 10:48:36;;;;;;;1.67;0.70;;;6.70;99.90;;;;;;5073399;28;20094;-91
2024/01/04 10:51:09;;;;;;;5.15;0.82;;;6.80;99.90;;;;;;5075161;28;20127;-90
2024/01/04 10:53:37;;;;;;;4.53;0.88;;;6.80;99.90;;;;;;5077750;28;20047;-89
2024/01/04 10:56:07;;;;;;;5.07;1.55;;;6.80;99.90;;;;;;5082241;28;20499;-90
2024/01/04 10:58:35;;;;;;;2.47;0.75;;;6.80;99.90;;;;;;5072643;28;20063;-89
2024/01/04 11:01:02;;;;;;;2.17;0.57;;;6.90;99.90;;;;;;5077214;28;20048;-90
2024/01/04 11:03:32;;;;;;;2.72;1.20;;;6.90;99.90;;;;;;5091399;28;20765;-90
2024/01/04 11:06:04;;;;;;;2.22;0.77;;;6.90;99.90;;;;;;5093249;28;20040;-90
2024/01/04 11:08:32;;;;;;;;;;;6.90;99.90;;;;;;5073660;28;20051;-91
2024/01/04 11:11:00;;;;;;;3.63;0.90;;;6.90;99.90;;;;;;5070689;28;20013;-89
2024/01/04 11:13:25;;;;;;;3.83;0.77;;;7.00;99.90;;;;;;5076939;28;20037;-89
2024/01/04 11:15:55;;;;;;;1.48;0.60;;;7.00;99.90;;;;;;5076257;28;20024;-90
2024/01/04 11:19:07;;;;;;;1.33;0.50;;;7.00;99.90;;;;;;5075891;28;20068;-90
2024/01/04 11:21:45;;;;;;;2.10;0.80;;;7.00;99.90;;;;;;5075792;28;20564;-90
2024/01/04 11:24:48;;;;;;;2.58;0.38;;;7.00;99.90;;;;;;5092551;28;20048;-90
2024/01/04 11:27:17;;;;;;;2.25;0.63;;;7.00;99.90;;;;;;5086228;28;20044;-90
2024/01/04 11:29:43;;;;;;;2.95;0.40;;;7.00;99.90;;;;;;5063061;28;20883;-90
2024/01/04 11:32:10;;;;;;;4.22;0.98;;;7.00;99.90;;;;;;5055863;28;20101;-90
2024/01/04 11:34:39;;;;;;;2.78;0.68;;;7.00;99.90;;;;;;5071957;28;20032;-89
2024/01/04 11:37:19;;;;;;;2.83;0.77;;;7.00;99.90;;;;;;5062876;28;20388;-90
2024/01/04 11:40:11;;;;;;;2.58;0.47;;;7.00;99.90;;;;;;5079166;28;20037;-89
2024/01/04 11:42:39;;;;;;;2.03;0.75;;;7.10;99.90;;;;;;5087445;28;20051;-90
2024/01/04 11:45:13;;;;;;;3.72;1.13;;;7.10;99.90;;;;;;5074571;28;20040;-90
2024/01/04 11:47:40;;;;;;;2.38;0.50;;;7.10;99.90;;;;;;5094116;28;20501;-88
2024/01/04 11:50:16;;;;;;;4.25;0.57;;;7.10;99.90;;;;;;5067879;28;20083;-89
2024/01/04 11:52:46;;;;;;;4.47;0.75;;;7.10;99.90;;;;;;5065063;28;20048;-90
2024/01/04 11:55:23;;;;;;;2.67;0.50;;;7.10;99.90;;;;;;5080213;28;20051;-90
2024/01/04 11:57:49;;;;;;;3.55;0.68;;;7.10;99.90;;;;;;5063396;28;20041;-89
2024/01/04 12:00:15;;;;;;;5.40;0.60;;;7.10;99.90;;;;;;5079630;28;20044;-90
2024/01/04 12:02:41;;;;;;;1.00;0.20;;;7.10;99.90;;;;;;5054948;28;20051;-90
2024/01/04 12:05:07;;;;;;;3.10;0.30;;;7.10;99.90;;;;;;5062618;28;20093;-91
2024/01/04 12:07:35;;;;;;;9.48;1.17;;;7.20;99.90;;;;;;5080635;28;20047;-90
2024/01/04 12:10:00;;;;;;;2.00;0.50;;;7.10;99.90;;;;;;5063089;28;20171;-90
2024/01/04 12:12:26;;;;;;;3.92;0.63;;;7.10;99.90;;;;;;5071443;28;20072;-90
2024/01/04 12:14:52;;;;;;;1.85;0.65;;;7.10;99.90;;;;;;5054759;28;20032;-90
2024/01/04 12:17:18;;;;;;;2.28;0.60;;;7.10;99.90;;;;;;5071461;28;20054;-89
2024/01/04 12:19:44;;;;;;;4.43;0.60;;;7.10;99.90;;;;;;5054737;28;20563;-89
2024/01/04 12:22:10;;;;;;;5.32;0.70;;;7.20;99.90;;;;;;5071337;28;20036;-90
2024/01/04 12:24:41;;;;;;;2.17;0.70;;;7.20;99.90;;;;;;5054410;28;20043;-90
2024/01/04 12:27:07;;;;;;;1.20;0.70;;;7.20;99.90;;;;;;5054693;28;20033;-90
2024/01/04 12:29:33;;;;;;;2.80;0.52;;;7.20;99.90;;;;;;5071022;28;20048;-90
2024/01/04 12:31:59;;;;;;;3.00;0.60;;;7.20;99.90;;;;;;5077730;28;20040;-89
2024/01/04 12:34:25;;;;;;;3.60;1.08;;;7.20;99.90;;;;;;5072745;28;20412;-90
2024/01/04 12:36:50;;;;;;;4.60;0.70;;;7.20;99.90;;;;;;5054467;28;20120;-88
2024/01/04 12:39:16;;;;;;;2.67;0.70;;;7.20;99.90;;;;;;5080155;28;20104;-89
2024/01/04 12:41:47;;;;;;;2.38;0.77;;;7.30;99.90;;;;;;5070365;28;20037;-90
2024/01/04 12:44:14;;;;;;;3.33;0.80;;;7.30;99.90;;;;;;5079523;28;20044;-89
2024/01/04 12:46:41;;;;;;;4.95;1.13;;;7.30;99.90;;;;;;5062130;28;20511;-90
2024/01/04 12:49:08;;;;;;;2.63;0.70;;;7.30;99.90;;;;;;5070104;28;20040;-89
2024/01/04 12:51:41;;;;;;;2.63;1.10;;;7.20;99.90;;;;;;5074235;28;20048;-90
2024/01/04 12:54:07;;;;;;;3.40;0.57;;;7.20;99.90;;;;;;5092263;28;20047;-90
2024/01/04 12:56:36;;;;;;;1.88;0.70;;;7.20;99.90;;;;;;5090781;28;20036;-89